createdAt,value
2018-02-20T00:00:27.717Z,12.30
2018-02-20T00:02:56.580Z,13.00
2018-02-20T00:05:25.459Z,13.27
2018-02-20T00:07:54.327Z,12.00
2018-02-20T00:10:23.312Z,12.33
2018-02-20T00:12:52.176Z,13.60
2018-02-20T00:15:21.055Z,13.13
2018-02-20T00:17:49.925Z,13.27
2018-02-20T00:20:18.788Z,13.10
2018-02-20T00:22:47.668Z,12.63
2018-02-20T00:25:16.541Z,13.43
2018-02-20T00:27:45.433Z,12.00
2018-02-20T00:30:14.291Z,12.00
2018-02-20T00:32:43.312Z,13.10
2018-02-20T00:35:12.184Z,13.07
2018-02-20T00:37:41.073Z,12.37
2018-02-20T00:40:10.180Z,11.43
2018-02-20T00:42:39.060Z,12.80
2018-02-20T00:45:07.929Z,13.00
2018-02-20T00:47:36.816Z,12.70
2018-02-20T00:50:05.688Z,12.83
2018-02-20T00:52:34.590Z,11.90
2018-02-20T00:55:03.458Z,12.20
2018-02-20T00:57:32.332Z,12.30
2018-02-20T01:00:01.224Z,12.43
2018-02-20T01:02:30.092Z,12.47
2018-02-20T01:04:58.968Z,11.53
2018-02-20T01:07:27.836Z,13.20
2018-02-20T01:09:56.730Z,11.90
2018-02-20T01:12:25.599Z,12.30
2018-02-20T01:14:54.483Z,12.53
2018-02-20T01:17:23.356Z,13.30
2018-02-20T01:19:52.235Z,12.70
2018-02-20T01:22:21.105Z,12.27
2018-02-20T01:24:49.986Z,13.97
2018-02-20T01:27:18.856Z,11.67
2018-02-20T01:29:47.789Z,12.50
2018-02-20T01:32:16.652Z,12.50
2018-02-20T01:34:45.508Z,13.67
2018-02-20T01:37:14.405Z,10.87
2018-02-20T01:39:43.269Z,12.20
2018-02-20T01:42:12.156Z,11.40
2018-02-20T01:44:41.024Z,13.20
2018-02-20T01:47:09.909Z,11.40
2018-02-20T01:49:38.780Z,12.37
2018-02-20T01:52:07.655Z,11.80
2018-02-20T01:54:36.516Z,12.03
2018-02-20T01:57:05.396Z,13.53
2018-02-20T01:59:34.340Z,12.00
2018-02-20T02:02:03.968Z,12.60
2018-02-20T02:04:32.832Z,11.47
2018-02-20T02:07:01.740Z,12.30
2018-02-20T02:09:30.712Z,11.90
2018-02-20T02:11:59.575Z,12.67
2018-02-20T02:14:28.468Z,12.40
2018-02-20T02:16:57.332Z,11.80
2018-02-20T02:19:26.213Z,13.23
2018-02-20T02:21:55.075Z,12.83
2018-02-20T02:24:23.981Z,12.07
2018-02-20T02:26:52.850Z,11.90
2018-02-20T02:29:21.732Z,12.57
2018-02-20T02:31:50.602Z,12.40
2018-02-20T02:34:19.489Z,12.00
2018-02-20T02:36:48.357Z,12.80
2018-02-20T02:39:17.235Z,14.07
2018-02-20T02:41:46.099Z,12.47
2018-02-20T02:44:14.996Z,12.20
2018-02-20T02:46:43.876Z,11.43
2018-02-20T02:49:12.744Z,13.73
2018-02-20T02:51:41.632Z,13.40
2018-02-20T02:54:10.505Z,12.63
2018-02-20T02:56:39.401Z,11.17
2018-02-20T02:59:08.275Z,11.30
2018-02-20T03:01:37.227Z,11.83
2018-02-20T03:04:06.048Z,12.60
2018-02-20T03:06:34.944Z,12.00
2018-02-20T03:09:03.816Z,13.00
2018-02-20T03:11:32.699Z,13.10
2018-02-20T03:14:01.560Z,12.00
2018-02-20T03:16:30.444Z,13.17
2018-02-20T03:18:59.310Z,12.47
2018-02-20T03:21:28.195Z,13.73
2018-02-20T03:23:57.055Z,12.13
2018-02-20T03:26:25.966Z,13.50
2018-02-20T03:28:54.841Z,13.40
2018-02-20T03:31:23.708Z,11.90
2018-02-20T03:33:52.588Z,12.60
2018-02-20T03:36:21.461Z,12.67
2018-02-20T03:38:50.348Z,12.83
2018-02-20T03:41:19.212Z,12.97
2018-02-20T03:43:48.096Z,11.63
2018-02-20T03:46:16.969Z,12.50
2018-02-20T03:48:45.856Z,12.20
2018-02-20T03:51:14.731Z,13.03
2018-02-20T03:53:43.614Z,11.90
2018-02-20T03:56:12.487Z,12.67
2018-02-20T03:58:41.371Z,12.50
2018-02-20T04:01:10.236Z,12.60
2018-02-20T04:03:39.126Z,12.50
2018-02-20T04:06:07.992Z,12.43
2018-02-20T04:08:36.896Z,12.67
2018-02-20T04:11:05.759Z,12.40
2018-02-20T04:13:34.621Z,12.93
2018-02-20T04:16:03.504Z,12.03
2018-02-20T04:18:32.374Z,12.37
2018-02-20T04:21:01.261Z,12.67
2018-02-20T04:23:30.134Z,12.93
2018-02-20T04:25:59.021Z,13.43
2018-02-20T04:28:27.899Z,13.23
2018-02-20T04:30:56.784Z,13.17
2018-02-20T04:33:25.642Z,12.80
2018-02-20T04:35:54.515Z,13.73
2018-02-20T04:38:23.544Z,11.60
2018-02-20T04:40:52.422Z,13.70
2018-02-20T04:43:21.282Z,12.47
2018-02-20T04:45:50.166Z,13.20
2018-02-20T04:48:19.035Z,12.40
2018-02-20T04:50:47.928Z,11.77
2018-02-20T04:53:16.788Z,13.60
2018-02-20T04:55:45.647Z,13.47
2018-02-20T04:58:14.537Z,13.93
2018-02-20T05:00:43.464Z,12.07
2018-02-20T05:03:12.343Z,13.40
2018-02-20T05:05:41.214Z,12.53
2018-02-20T05:08:10.096Z,12.53
2018-02-20T05:10:38.966Z,13.17
2018-02-20T05:13:07.842Z,12.47
2018-02-20T05:15:36.707Z,12.80
2018-02-20T05:18:05.583Z,13.50
2018-02-20T05:20:34.448Z,13.00
2018-02-20T05:23:03.316Z,13.10
2018-02-20T05:25:32.187Z,11.93
2018-02-20T05:28:01.063Z,12.70
2018-02-20T05:30:29.932Z,12.10
2018-02-20T05:32:58.822Z,13.03
2018-02-20T05:35:27.678Z,13.00
2018-02-20T05:37:56.539Z,13.00
2018-02-20T05:40:25.415Z,12.83
2018-02-20T05:42:54.288Z,12.83
2018-02-20T05:45:23.174Z,12.60
2018-02-20T05:47:52.040Z,13.17
2018-02-20T05:50:20.922Z,13.13
2018-02-20T05:52:49.775Z,12.40
2018-02-20T05:55:18.647Z,12.57
2018-02-20T05:57:47.562Z,11.43
2018-02-20T06:00:16.402Z,12.03
2018-02-20T06:02:45.259Z,12.57
2018-02-20T06:05:14.126Z,11.37
2018-02-20T06:07:43.071Z,13.30
2018-02-20T06:10:11.951Z,13.00
2018-02-20T06:12:40.806Z,11.50
2018-02-20T06:15:09.679Z,12.70
2018-02-20T06:17:38.550Z,12.47
2018-02-20T06:20:07.459Z,12.87
2018-02-20T06:22:36.320Z,13.63
2018-02-20T06:25:05.180Z,12.50
2018-02-20T06:27:34.062Z,12.13
2018-02-20T06:30:02.923Z,12.27
2018-02-20T06:32:31.811Z,11.70
2018-02-20T06:35:00.670Z,12.80
2018-02-20T06:37:29.549Z,12.40
2018-02-20T06:39:58.403Z,11.27
2018-02-20T06:42:27.278Z,12.17
2018-02-20T06:44:56.143Z,12.17
2018-02-20T06:47:25.015Z,11.30
2018-02-20T06:49:53.878Z,12.50
2018-02-20T06:52:22.751Z,11.60
2018-02-20T06:54:51.615Z,11.73
2018-02-20T06:57:20.492Z,12.37
2018-02-20T06:59:49.347Z,12.97
2018-02-20T07:02:18.226Z,11.07
2018-02-20T07:04:47.083Z,11.10
2018-02-20T07:07:15.966Z,12.33
2018-02-20T07:09:44.838Z,11.17
2018-02-20T07:12:13.704Z,10.87
2018-02-20T07:14:42.581Z,12.40
2018-02-20T07:17:11.446Z,11.57
2018-02-20T07:19:40.334Z,12.70
2018-02-20T07:22:09.192Z,13.50
2018-02-20T07:24:38.070Z,11.70
2018-02-20T07:27:06.931Z,13.33
2018-02-20T07:29:35.802Z,12.10
2018-02-20T07:32:04.655Z,12.00
2018-02-20T07:34:33.536Z,12.00
2018-02-20T07:37:02.405Z,12.37
2018-02-20T07:39:31.290Z,12.93
2018-02-20T07:42:00.155Z,12.67
2018-02-20T07:44:29.035Z,13.07
2018-02-20T07:46:57.899Z,11.43
2018-02-20T07:49:26.776Z,13.23
2018-02-20T07:51:55.640Z,12.83
2018-02-20T07:54:24.519Z,14.17
2018-02-20T07:56:53.382Z,12.97
2018-02-20T07:59:22.271Z,12.33
2018-02-20T08:01:51.128Z,11.97
2018-02-20T08:04:19.993Z,14.13
2018-02-20T08:06:48.877Z,13.10
2018-02-20T08:09:17.746Z,12.10
2018-02-20T08:11:46.626Z,11.57
2018-02-20T08:14:15.491Z,13.30
2018-02-20T08:16:44.358Z,13.37
2018-02-20T08:19:13.226Z,13.27
2018-02-20T08:21:42.102Z,12.87
2018-02-20T08:24:10.968Z,13.07
2018-02-20T08:26:39.845Z,12.73
2018-02-20T08:29:08.707Z,13.50
2018-02-20T08:31:37.592Z,12.20
2018-02-20T08:34:06.451Z,14.00
2018-02-20T08:36:35.330Z,13.20
2018-02-20T08:39:04.187Z,13.17
2018-02-20T08:41:33.070Z,13.30
2018-02-20T08:44:01.922Z,13.07
2018-02-20T08:46:30.776Z,13.40
2018-02-20T08:48:59.663Z,13.67
2018-02-20T08:51:28.529Z,11.90
2018-02-20T08:53:57.414Z,14.27
2018-02-20T08:56:26.293Z,14.53
2018-02-20T08:58:55.171Z,13.57
2018-02-20T09:01:24.034Z,14.10
2018-02-20T09:03:52.911Z,13.03
2018-02-20T09:06:21.778Z,13.57
2018-02-20T09:08:50.655Z,14.70
2018-02-20T09:11:19.523Z,14.73
2018-02-20T09:13:48.407Z,13.80
2018-02-20T09:16:17.267Z,14.40
2018-02-20T09:18:46.147Z,13.43
2018-02-20T09:21:15.007Z,14.80
2018-02-20T09:23:43.888Z,15.50
2018-02-20T09:26:12.748Z,14.30
2018-02-20T09:28:41.627Z,15.40
2018-02-20T09:31:10.492Z,14.73
2018-02-20T09:33:39.366Z,14.07
2018-02-20T09:36:08.243Z,15.00
2018-02-20T09:38:37.111Z,14.67
2018-02-20T09:41:05.991Z,16.50
2018-02-20T09:43:34.902Z,13.87
2018-02-20T09:46:03.769Z,15.93
2018-02-20T09:48:32.635Z,14.07
2018-02-20T09:51:01.520Z,15.93
2018-02-20T09:53:30.383Z,15.23
2018-02-20T09:55:59.276Z,14.10
2018-02-20T09:58:28.142Z,15.87
2018-02-20T10:00:57.016Z,14.37
2018-02-20T10:03:25.892Z,17.27
2018-02-20T10:05:54.766Z,15.33
2018-02-20T10:08:23.623Z,16.10
2018-02-20T10:10:52.526Z,15.63
2018-02-20T10:13:21.415Z,15.97
2018-02-20T10:15:50.278Z,15.87
2018-02-20T10:18:19.160Z,14.10
2018-02-20T10:20:48.027Z,16.00
2018-02-20T10:23:16.920Z,15.53
2018-02-20T10:25:45.786Z,16.27
2018-02-20T10:28:14.671Z,15.50
2018-02-20T10:30:43.527Z,15.30
2018-02-20T10:33:12.407Z,16.43
2018-02-20T10:35:41.271Z,15.67
2018-02-20T10:38:10.155Z,15.53
2018-02-20T10:40:39.043Z,15.93
2018-02-20T10:43:07.967Z,14.97
2018-02-20T10:45:36.847Z,15.67
2018-02-20T10:48:05.747Z,15.10
2018-02-20T10:50:34.638Z,16.57
2018-02-20T10:53:03.542Z,16.80
2018-02-20T10:55:32.431Z,16.43
2018-02-20T10:58:01.326Z,16.43
2018-02-20T11:00:30.215Z,15.50
2018-02-20T11:02:59.123Z,15.13
2018-02-20T11:05:28.019Z,14.97
2018-02-20T11:07:56.914Z,14.00
2018-02-20T11:10:25.818Z,15.40
2018-02-20T11:12:54.722Z,15.07
2018-02-20T11:15:23.608Z,17.53
2018-02-20T11:17:52.507Z,16.03
2018-02-20T11:20:21.406Z,15.90
2018-02-20T11:22:50.298Z,15.27
2018-02-20T11:25:19.203Z,15.67
2018-02-20T11:27:48.090Z,16.70
2018-02-20T11:30:16.994Z,15.37
2018-02-20T11:32:45.883Z,16.13
2018-02-20T11:35:14.787Z,16.50
2018-02-20T11:37:43.798Z,14.70
2018-02-20T11:40:12.706Z,15.50
2018-02-20T11:42:41.598Z,17.57
2018-02-20T11:45:10.507Z,15.80
2018-02-20T11:47:39.396Z,16.27
2018-02-20T11:50:08.299Z,15.17
2018-02-20T11:52:37.183Z,15.97
2018-02-20T11:55:06.088Z,16.07
2018-02-20T11:57:34.979Z,16.40
2018-02-20T12:00:03.903Z,14.10
2018-02-20T12:02:32.798Z,16.10
2018-02-20T12:05:01.687Z,16.10
2018-02-20T12:07:30.631Z,16.60
2018-02-20T12:09:59.514Z,15.40
2018-02-20T12:12:28.414Z,15.90
2018-02-20T12:14:57.302Z,15.10
2018-02-20T12:17:26.206Z,15.40
2018-02-20T12:19:55.090Z,17.00
2018-02-20T12:22:23.995Z,16.53
2018-02-20T12:24:52.880Z,15.17
2018-02-20T12:27:21.779Z,16.03
2018-02-20T12:29:50.659Z,15.30
2018-02-20T12:32:19.661Z,15.37
2018-02-20T12:34:48.472Z,16.30
2018-02-20T12:37:17.372Z,16.30
2018-02-20T12:39:46.266Z,16.40
2018-02-20T12:42:15.178Z,14.73
2018-02-20T12:44:44.854Z,15.00
2018-02-20T12:47:13.759Z,15.43
2018-02-20T12:49:42.649Z,15.83
2018-02-20T12:52:11.555Z,15.83
2018-02-20T12:54:40.450Z,14.23
2018-02-20T12:57:09.356Z,14.90
2018-02-20T12:59:38.238Z,14.20
2018-02-20T13:02:07.160Z,15.00
2018-02-20T13:04:36.063Z,14.40
2018-02-20T13:07:04.952Z,14.47
2018-02-20T13:09:33.861Z,15.30
2018-02-20T13:12:02.743Z,13.23
2018-02-20T13:14:31.643Z,13.90
2018-02-20T13:17:00.538Z,13.53
2018-02-20T13:19:29.439Z,15.40
2018-02-20T13:21:58.318Z,14.60
2018-02-20T13:24:27.229Z,13.90
2018-02-20T13:26:56.114Z,13.33
2018-02-20T13:29:25.025Z,14.93
2018-02-20T13:31:53.921Z,14.33
2018-02-20T13:34:22.823Z,14.17
2018-02-20T13:36:51.723Z,14.10
2018-02-20T13:39:20.643Z,14.10
2018-02-20T13:41:49.565Z,12.17
2018-02-20T13:44:18.468Z,14.47
2018-02-20T13:46:47.513Z,13.60
2018-02-20T13:49:16.417Z,14.07
2018-02-20T13:51:45.310Z,13.23
2018-02-20T13:54:14.214Z,13.93
2018-02-20T13:56:43.152Z,13.23
2018-02-20T13:59:12.073Z,12.90
2018-02-20T14:01:40.957Z,13.60
2018-02-20T14:04:09.852Z,13.53
2018-02-20T14:06:38.758Z,13.87
2018-02-20T14:09:07.638Z,13.90
2018-02-20T14:11:36.543Z,13.93
2018-02-20T14:14:05.432Z,13.60
2018-02-20T14:16:34.338Z,14.20
2018-02-20T14:19:03.232Z,13.90
2018-02-20T14:21:32.139Z,13.73
2018-02-20T14:24:01.044Z,13.90
2018-02-20T14:26:29.970Z,13.53
2018-02-20T14:28:58.855Z,12.53
2018-02-20T14:31:27.769Z,14.57
2018-02-20T14:33:56.667Z,14.07
2018-02-20T14:36:25.581Z,13.60
2018-02-20T14:38:54.470Z,13.70
2018-02-20T14:41:23.393Z,13.77
2018-02-20T14:43:52.282Z,13.37
2018-02-20T14:46:21.206Z,12.60
2018-02-20T14:48:50.102Z,13.90
2018-02-20T14:51:18.997Z,13.77
2018-02-20T14:53:47.896Z,14.13
2018-02-20T14:56:16.818Z,14.70
2018-02-20T14:58:45.704Z,14.10
2018-02-20T15:01:14.602Z,14.80
2018-02-20T15:03:43.518Z,14.97
2018-02-20T15:06:12.407Z,14.60
2018-02-20T15:08:41.311Z,15.53
2018-02-20T15:11:10.212Z,15.60
2018-02-20T15:13:39.140Z,14.20
2018-02-20T15:16:08.035Z,15.10
2018-02-20T15:18:36.947Z,15.60
2018-02-20T15:21:05.879Z,14.13
2018-02-20T15:23:34.816Z,14.50
2018-02-20T15:26:03.709Z,14.40
2018-02-20T15:28:32.651Z,14.30
2018-02-20T15:31:01.540Z,14.90
2018-02-20T15:33:30.450Z,14.70
2018-02-20T15:35:59.346Z,16.00
2018-02-20T15:38:28.251Z,14.50
2018-02-20T15:40:57.134Z,14.73
2018-02-20T15:43:26.061Z,17.00
2018-02-20T15:45:54.969Z,15.60
2018-02-20T15:48:23.860Z,15.23
2018-02-20T15:50:52.759Z,16.40
2018-02-20T15:53:21.659Z,15.27
2018-02-20T15:55:50.564Z,16.47
2018-02-20T15:58:19.446Z,16.20
2018-02-20T16:00:48.360Z,17.30
2018-02-20T16:03:17.250Z,14.60
2018-02-20T16:05:46.186Z,14.80
2018-02-20T16:08:15.063Z,15.70
2018-02-20T16:10:43.983Z,14.77
2018-02-20T16:13:12.867Z,15.23
2018-02-20T16:15:41.762Z,14.70
2018-02-20T16:18:10.654Z,15.27
2018-02-20T16:20:39.556Z,15.50
2018-02-20T16:23:08.448Z,14.73
2018-02-20T16:25:37.360Z,15.00
2018-02-20T16:28:06.279Z,15.27
2018-02-20T16:30:35.183Z,16.10
2018-02-20T16:33:04.083Z,15.20
2018-02-20T16:35:33.000Z,15.03
2018-02-20T16:38:01.915Z,14.50
2018-02-20T16:40:30.822Z,14.50
2018-02-20T16:42:59.707Z,15.77
2018-02-20T16:45:28.633Z,15.50
2018-02-20T16:47:57.531Z,15.77
2018-02-20T16:50:26.444Z,14.70
2018-02-20T16:52:55.347Z,14.53
2018-02-20T16:55:24.272Z,15.53
2018-02-20T16:57:53.196Z,15.50
2018-02-20T17:00:22.110Z,15.30
2018-02-20T17:02:50.994Z,15.27
2018-02-20T17:05:19.898Z,14.37
2018-02-20T17:07:48.795Z,13.33
2018-02-20T17:10:17.731Z,14.60
2018-02-20T17:12:46.629Z,14.37
2018-02-20T17:15:15.515Z,13.40
2018-02-20T17:17:44.432Z,13.97
2018-02-20T17:20:13.328Z,13.43
2018-02-20T17:22:42.239Z,13.50
2018-02-20T17:25:11.138Z,13.83
2018-02-20T17:27:40.056Z,14.70
2018-02-20T17:30:08.978Z,12.60
2018-02-20T17:32:37.882Z,15.50
2018-02-20T17:35:06.779Z,13.90
2018-02-20T17:37:35.682Z,13.60
2018-02-20T17:40:04.571Z,14.00
2018-02-20T17:42:33.486Z,13.03
2018-02-20T17:45:02.378Z,14.20
2018-02-20T17:47:31.289Z,13.77
2018-02-20T17:50:00.167Z,13.40
2018-02-20T17:52:29.067Z,13.20
2018-02-20T17:54:57.968Z,13.17
2018-02-20T17:57:26.902Z,13.53
2018-02-20T17:59:55.780Z,13.20
2018-02-20T18:02:24.690Z,13.50
2018-02-20T18:04:53.578Z,12.83
2018-02-20T18:07:22.487Z,13.27
2018-02-20T18:09:51.375Z,13.17
2018-02-20T18:12:20.308Z,12.00
2018-02-20T18:14:49.192Z,12.30
2018-02-20T18:17:18.083Z,12.50
2018-02-20T18:19:46.991Z,13.00
2018-02-20T18:22:15.896Z,13.43
2018-02-20T18:24:44.798Z,12.60
2018-02-20T18:27:13.704Z,13.50
2018-02-20T18:29:42.601Z,12.10
2018-02-20T18:32:11.491Z,13.10
2018-02-20T18:34:40.405Z,12.43
2018-02-20T18:37:09.287Z,12.50
2018-02-20T18:39:38.187Z,12.67
2018-02-20T18:42:07.088Z,13.07
2018-02-20T18:44:36.004Z,11.80
2018-02-20T18:47:04.919Z,13.03
2018-02-20T18:49:33.822Z,12.90
2018-02-20T18:52:02.713Z,12.63
2018-02-20T18:54:31.624Z,11.90
2018-02-20T18:57:00.565Z,12.30
2018-02-20T18:59:29.432Z,12.07
2018-02-20T19:01:58.336Z,11.33
2018-02-20T19:04:27.231Z,13.27
2018-02-20T19:06:56.172Z,11.57
2018-02-20T19:09:25.059Z,11.90
2018-02-20T19:11:53.968Z,12.13
2018-02-20T19:14:22.876Z,13.10
2018-02-20T19:16:51.793Z,12.40
2018-02-20T19:19:20.692Z,11.73
2018-02-20T19:21:49.618Z,12.20
2018-02-20T19:24:18.502Z,11.80
2018-02-20T19:26:48.183Z,11.33
2018-02-20T19:29:17.069Z,13.00
2018-02-20T19:31:45.976Z,11.30
2018-02-20T19:34:14.868Z,12.27
2018-02-20T19:39:19.141Z,10.83
2018-02-20T19:41:48.800Z,11.50
2018-02-20T19:44:17.688Z,11.30
2018-02-20T19:46:46.661Z,12.40
2018-02-20T19:49:15.591Z,11.20
2018-02-20T19:51:44.478Z,13.00
2018-02-20T19:54:13.394Z,12.07
2018-02-20T19:56:42.278Z,12.13
2018-02-20T19:59:11.179Z,11.93
2018-02-20T20:01:40.067Z,9.93
2018-02-20T20:04:08.981Z,12.20
2018-02-20T20:06:37.882Z,11.00
2018-02-20T20:09:06.816Z,10.87
2018-02-20T20:11:35.703Z,11.23
2018-02-20T20:14:04.601Z,11.90
2018-02-20T20:16:33.482Z,12.87
2018-02-20T20:19:02.403Z,12.33
2018-02-20T20:21:31.897Z,11.73
2018-02-20T20:24:00.804Z,11.53
2018-02-20T20:26:29.690Z,10.90
2018-02-20T20:28:57.248Z,12.00
2018-02-20T20:31:24.787Z,12.13
2018-02-20T20:33:52.343Z,11.13
2018-02-20T20:36:19.904Z,10.73
2018-02-20T20:38:47.465Z,11.27
2018-02-20T20:41:15.035Z,10.27
2018-02-20T20:43:42.621Z,11.37
2018-02-20T20:46:10.169Z,11.30
2018-02-20T20:48:37.722Z,10.40
2018-02-20T20:51:05.275Z,11.70
2018-02-20T20:53:32.826Z,10.70
2018-02-20T20:56:00.386Z,12.20
2018-02-20T20:58:27.928Z,10.50
2018-02-20T21:00:55.484Z,11.17
2018-02-20T21:03:23.873Z,10.67
2018-02-20T21:05:51.435Z,11.40
2018-02-20T21:08:18.968Z,11.37
2018-02-20T21:10:47.319Z,12.27
2018-02-20T21:13:14.856Z,11.53
2018-02-20T21:15:42.478Z,12.33
2018-02-20T21:18:10.854Z,11.17
2018-02-20T21:20:39.184Z,10.10
2018-02-20T21:23:06.724Z,11.70
2018-02-20T21:25:34.281Z,10.97
2018-02-20T21:28:01.833Z,11.70
2018-02-20T21:30:29.459Z,11.57
2018-02-20T21:32:57.807Z,11.70
2018-02-20T21:35:25.399Z,11.10
2018-02-20T21:37:52.944Z,11.87
2018-02-20T21:40:20.510Z,12.27
2018-02-20T21:42:48.154Z,10.63
2018-02-20T21:45:15.691Z,11.23
2018-02-20T21:47:43.256Z,12.30
2018-02-20T21:50:10.799Z,11.77
2018-02-20T21:52:39.136Z,11.90
2018-02-20T21:55:06.686Z,10.97
2018-02-20T21:57:34.239Z,11.67
2018-02-20T22:00:01.776Z,12.63
2018-02-20T22:02:29.352Z,11.53
2018-02-20T22:04:56.919Z,11.90
2018-02-20T22:07:24.497Z,11.80
2018-02-20T22:09:52.043Z,11.90
2018-02-20T22:12:19.596Z,12.83
2018-02-20T22:14:47.139Z,12.53
2018-02-20T22:17:14.711Z,11.97
2018-02-20T22:19:42.256Z,11.40
2018-02-20T22:22:09.802Z,12.70
2018-02-20T22:24:38.134Z,13.60
2018-02-20T22:27:05.670Z,12.30
2018-02-20T22:29:33.226Z,12.93
2018-02-20T22:32:00.759Z,14.10
2018-02-20T22:34:29.080Z,12.03
2018-02-20T22:36:56.629Z,12.50
2018-02-20T22:39:24.197Z,13.33
2018-02-20T22:41:51.752Z,12.90
2018-02-20T22:44:19.381Z,13.70
2018-02-20T22:46:47.691Z,13.63
2018-02-20T22:49:15.247Z,13.73
2018-02-20T22:51:42.801Z,13.17
2018-02-20T22:54:10.361Z,12.83
2018-02-20T22:56:37.917Z,13.30
2018-02-20T22:59:05.501Z,12.77
2018-02-20T23:01:33.056Z,13.50
2018-02-20T23:04:00.600Z,11.70
2018-02-20T23:06:28.160Z,14.43
2018-02-20T23:08:55.712Z,13.20
2018-02-20T23:11:34.978Z,14.07
2018-02-20T23:14:02.524Z,12.90
2018-02-20T23:16:30.083Z,13.67
2018-02-20T23:18:57.619Z,14.00
2018-02-20T23:21:25.947Z,13.20
2018-02-20T23:23:53.492Z,13.70
2018-02-20T23:26:21.049Z,12.30
2018-02-20T23:28:48.610Z,13.20
2018-02-20T23:31:16.201Z,12.30
2018-02-20T23:33:43.754Z,13.90
2018-02-20T23:36:11.329Z,14.30
2018-02-20T23:38:38.889Z,14.17
2018-02-20T23:41:06.486Z,13.50
2018-02-20T23:43:34.333Z,12.97
2018-02-20T23:46:01.866Z,13.90
2018-02-20T23:48:29.414Z,13.27
2018-02-20T23:51:02.499Z,14.20
2018-02-20T23:53:30.047Z,12.60
2018-02-20T23:55:57.596Z,12.80
2018-02-20T23:58:25.176Z,13.50
